createdAt,value
2023-03-20T00:02:25.530Z,1.00
2023-03-20T00:04:53.703Z,0.73
2023-03-20T00:07:21.423Z,0.80
2023-03-20T00:09:50.929Z,1.02
2023-03-20T00:12:26.269Z,0.52
2023-03-20T00:14:54.507Z,0.85
2023-03-20T00:17:22.491Z,1.10
2023-03-20T00:19:50.618Z,0.98
2023-03-20T00:22:18.343Z,1.15
2023-03-20T00:24:46.526Z,0.82
2023-03-20T00:27:17.514Z,0.90
2023-03-20T00:29:45.799Z,1.10
2023-03-20T00:32:14.411Z,0.98
2023-03-20T00:34:42.258Z,1.08
2023-03-20T00:37:12.533Z,1.10
2023-03-20T00:39:40.682Z,0.68
2023-03-20T00:42:20.636Z,0.75
2023-03-20T00:44:53.792Z,1.45
2023-03-20T00:47:24.269Z,1.00
2023-03-20T00:49:54.499Z,0.68
2023-03-20T00:52:23.943Z,0.68
2023-03-20T00:54:51.761Z,1.05
2023-03-20T00:57:26.510Z,0.80
2023-03-20T00:59:59.596Z,1.35
2023-03-20T01:02:31.564Z,1.48
2023-03-20T01:04:59.883Z,1.33
2023-03-20T01:07:28.623Z,1.30
2023-03-20T01:09:56.870Z,1.17
2023-03-20T01:12:26.497Z,1.23
2023-03-20T01:14:58.722Z,1.20
2023-03-20T01:17:29.950Z,1.35
2023-03-20T01:19:57.938Z,1.13
2023-03-20T01:22:26.041Z,1.13
2023-03-20T01:24:53.824Z,0.70
2023-03-20T01:27:23.498Z,1.17
2023-03-20T01:29:52.572Z,1.30
2023-03-20T01:32:20.783Z,1.10
2023-03-20T01:34:48.875Z,1.08
2023-03-20T01:37:27.826Z,1.50
2023-03-20T01:39:57.616Z,0.95
2023-03-20T01:42:25.747Z,1.05
2023-03-20T01:44:54.902Z,1.40
2023-03-20T01:47:26.164Z,1.33
2023-03-20T01:50:26.489Z,1.33
2023-03-20T01:53:05.019Z,1.30
2023-03-20T01:55:33.939Z,0.77
2023-03-20T01:58:08.617Z,0.63
2023-03-20T02:00:38.352Z,0.80
2023-03-20T02:03:09.637Z,0.93
2023-03-20T02:05:39.565Z,1.10
2023-03-20T02:08:20.801Z,1.25
2023-03-20T02:10:50.391Z,0.80
2023-03-20T02:13:19.231Z,1.08
2023-03-20T02:16:04.439Z,0.95
2023-03-20T02:18:33.343Z,0.82
2023-03-20T02:21:41.858Z,0.75
2023-03-20T02:24:55.267Z,0.88
2023-03-20T02:27:33.458Z,0.82
2023-03-20T02:30:45.198Z,1.38
2023-03-20T02:33:59.855Z,1.13
2023-03-20T02:37:35.511Z,1.20
2023-03-20T02:40:22.576Z,1.33
2023-03-20T02:42:59.384Z,0.82
2023-03-20T02:45:32.394Z,0.85
2023-03-20T02:48:17.288Z,0.95
2023-03-20T02:50:54.810Z,0.95
2023-03-20T02:53:40.932Z,0.90
2023-03-20T02:56:20.092Z,0.68
2023-03-20T02:58:57.838Z,1.00
2023-03-20T03:01:33.094Z,1.35
2023-03-20T03:04:08.603Z,1.42
2023-03-20T03:06:42.311Z,1.30
2023-03-20T03:09:19.920Z,0.70
2023-03-20T03:11:54.760Z,1.23
2023-03-20T03:14:38.134Z,0.77
2023-03-20T03:17:09.426Z,1.00
2023-03-20T03:19:41.638Z,1.20
2023-03-20T03:22:09.771Z,1.20
2023-03-20T03:24:44.927Z,1.33
2023-03-20T03:27:22.047Z,0.95
2023-03-20T03:29:56.597Z,1.20
2023-03-20T03:32:31.076Z,1.15
2023-03-20T03:35:01.031Z,1.15
2023-03-20T03:37:43.650Z,1.60
2023-03-20T03:40:26.090Z,1.25
2023-03-20T03:43:01.957Z,1.00
2023-03-20T03:45:36.818Z,1.10
2023-03-20T03:48:13.648Z,1.05
2023-03-20T03:50:48.588Z,0.68
2023-03-20T03:53:23.659Z,1.20
2023-03-20T03:56:00.230Z,1.20
2023-03-20T03:58:34.194Z,1.17
2023-03-20T04:01:06.061Z,1.27
2023-03-20T04:03:40.763Z,0.98
2023-03-20T04:08:41.745Z,0.90
2023-03-20T04:11:17.245Z,0.88
2023-03-20T04:13:48.110Z,0.90
2023-03-20T04:16:18.090Z,1.02
2023-03-20T04:18:47.275Z,1.05
2023-03-20T04:21:16.677Z,0.93
2023-03-20T04:23:44.606Z,1.15
2023-03-20T04:26:14.001Z,1.45
2023-03-20T04:28:42.183Z,1.27
2023-03-20T04:31:09.981Z,1.40
2023-03-20T04:33:37.816Z,1.27
2023-03-20T04:36:07.216Z,1.17
2023-03-20T04:38:35.036Z,0.90
2023-03-20T04:41:02.968Z,1.70
2023-03-20T04:43:32.313Z,1.83
2023-03-20T04:46:00.312Z,1.27
2023-03-20T04:48:28.816Z,1.15
2023-03-20T04:50:56.773Z,1.23
2023-03-20T04:53:27.064Z,1.20
2023-03-20T04:55:55.082Z,1.23
2023-03-20T04:58:23.583Z,1.85
2023-03-20T05:00:52.764Z,1.58
2023-03-20T05:03:23.399Z,0.95
2023-03-20T05:05:51.833Z,1.50
2023-03-20T05:08:19.636Z,1.70
2023-03-20T05:10:47.374Z,1.52
2023-03-20T05:13:15.190Z,1.40
2023-03-20T05:15:43.772Z,1.35
2023-03-20T05:18:12.937Z,0.85
2023-03-20T05:20:40.914Z,0.90
2023-03-20T05:23:08.838Z,1.13
2023-03-20T05:25:36.949Z,1.80
2023-03-20T05:28:05.133Z,0.88
2023-03-20T05:30:33.598Z,1.02
2023-03-20T05:33:01.447Z,1.25
2023-03-20T05:35:30.766Z,1.27
2023-03-20T05:37:58.453Z,1.25
2023-03-20T05:40:26.229Z,1.30
2023-03-20T05:42:54.018Z,1.33
2023-03-20T05:45:21.707Z,1.10
2023-03-20T05:47:49.670Z,1.65
2023-03-20T05:50:17.698Z,0.93
2023-03-20T05:52:49.624Z,1.33
2023-03-20T05:55:17.519Z,1.10
2023-03-20T05:57:45.287Z,1.10
2023-03-20T06:00:14.276Z,1.38
2023-03-20T06:02:42.461Z,1.40
2023-03-20T06:05:10.773Z,1.08
2023-03-20T06:07:38.477Z,1.30
2023-03-20T06:10:09.691Z,1.05
2023-03-20T06:12:37.382Z,1.52
2023-03-20T06:15:06.429Z,1.10
2023-03-20T06:17:34.154Z,1.65
2023-03-20T06:20:02.061Z,1.17
2023-03-20T06:22:30.166Z,1.67
2023-03-20T06:24:58.107Z,1.38
2023-03-20T06:27:27.608Z,1.60
2023-03-20T06:29:55.311Z,1.60
2023-03-20T06:32:23.013Z,0.90
2023-03-20T06:34:51.677Z,1.35
2023-03-20T06:37:20.922Z,1.30
2023-03-20T06:39:48.833Z,1.48
2023-03-20T06:42:17.615Z,0.95
2023-03-20T06:44:47.342Z,0.75
2023-03-20T06:47:15.537Z,1.27
2023-03-20T06:49:45.909Z,1.58
2023-03-20T06:52:18.252Z,1.23
2023-03-20T06:54:46.376Z,0.98
2023-03-20T06:57:15.351Z,1.17
2023-03-20T06:59:43.278Z,0.90
2023-03-20T07:02:12.565Z,1.30
2023-03-20T07:04:41.661Z,1.85
2023-03-20T07:07:09.524Z,1.30
2023-03-20T07:09:37.561Z,1.15
2023-03-20T07:12:05.579Z,1.60
2023-03-20T07:14:33.674Z,1.15
2023-03-20T07:17:01.343Z,1.90
2023-03-20T07:19:31.363Z,1.27
2023-03-20T07:22:03.556Z,1.33
2023-03-20T07:24:31.968Z,1.98
2023-03-20T07:27:00.044Z,1.45
2023-03-20T07:29:28.310Z,1.27
2023-03-20T07:31:56.293Z,1.27
2023-03-20T07:34:24.041Z,1.05
2023-03-20T07:36:53.288Z,1.17
2023-03-20T07:39:21.407Z,1.30
2023-03-20T07:41:49.676Z,1.65
2023-03-20T07:44:19.162Z,1.48
2023-03-20T07:46:47.950Z,1.40
2023-03-20T07:49:18.228Z,1.33
2023-03-20T07:51:46.301Z,1.55
2023-03-20T07:54:15.896Z,1.67
2023-03-20T07:56:44.493Z,1.55
2023-03-20T07:59:13.614Z,1.27
2023-03-20T08:01:41.523Z,1.48
2023-03-20T08:04:09.620Z,2.22
2023-03-20T08:06:39.287Z,1.95
2023-03-20T08:09:07.752Z,1.52
2023-03-20T08:11:36.859Z,1.30
2023-03-20T08:14:04.545Z,1.50
2023-03-20T08:16:32.310Z,1.40
2023-03-20T08:19:01.414Z,1.58
2023-03-20T08:21:29.720Z,1.35
2023-03-20T08:23:57.899Z,1.45
2023-03-20T08:26:26.461Z,1.70
2023-03-20T08:28:55.801Z,2.10
2023-03-20T08:31:23.776Z,1.65
2023-03-20T08:33:52.027Z,1.80
2023-03-20T08:36:20.817Z,1.63
2023-03-20T08:38:49.770Z,1.98
2023-03-20T08:41:17.901Z,2.03
2023-03-20T08:43:46.133Z,1.85
2023-03-20T08:46:15.486Z,2.00
2023-03-20T08:48:43.372Z,2.30
2023-03-20T08:51:11.318Z,2.10
2023-03-20T08:53:39.016Z,2.08
2023-03-20T08:56:08.682Z,2.50
2023-03-20T08:58:36.679Z,2.33
2023-03-20T09:01:06.535Z,2.08
2023-03-20T09:03:37.186Z,2.20
2023-03-20T09:06:08.144Z,2.10
2023-03-20T09:08:36.405Z,1.90
2023-03-20T09:11:05.219Z,1.80
2023-03-20T09:13:33.026Z,2.10
2023-03-20T09:16:00.925Z,1.67
2023-03-20T09:18:28.911Z,1.58
2023-03-20T09:20:58.033Z,2.22
2023-03-20T09:23:25.902Z,1.23
2023-03-20T09:25:53.806Z,1.27
2023-03-20T09:28:21.668Z,1.58
2023-03-20T09:30:49.844Z,2.15
2023-03-20T09:33:18.693Z,1.50
2023-03-20T09:35:46.896Z,2.00
2023-03-20T09:38:16.263Z,1.35
2023-03-20T09:40:53.449Z,2.30
2023-03-20T09:43:38.999Z,1.75
2023-03-20T09:46:30.468Z,1.08
2023-03-20T09:49:13.897Z,1.80
2023-03-20T09:51:50.092Z,1.20
2023-03-20T09:54:26.606Z,1.35
2023-03-20T09:56:57.727Z,0.73
2023-03-20T09:59:28.088Z,1.00
2023-03-20T10:02:00.651Z,1.30
2023-03-20T10:04:30.998Z,1.17
2023-03-20T10:06:58.793Z,1.15
2023-03-20T10:09:31.625Z,0.98
2023-03-20T10:12:27.063Z,1.08
2023-03-20T10:15:07.207Z,0.90
2023-03-20T10:17:54.848Z,0.85
2023-03-20T10:20:34.243Z,0.75
2023-03-20T10:23:14.250Z,0.98
2023-03-20T10:25:49.283Z,1.02
2023-03-20T10:28:25.371Z,0.95
2023-03-20T10:31:14.579Z,0.98
2023-03-20T10:33:58.221Z,1.33
2023-03-20T10:36:46.734Z,0.60
2023-03-20T10:39:26.985Z,0.68
2023-03-20T10:42:00.787Z,0.85
2023-03-20T10:44:38.419Z,0.93
2023-03-20T10:47:13.645Z,1.27
2023-03-20T10:49:48.986Z,0.70
2023-03-20T10:52:26.223Z,1.10
2023-03-20T10:54:59.806Z,1.17
2023-03-20T10:57:33.752Z,1.10
2023-03-20T11:00:01.910Z,1.55
2023-03-20T11:02:32.685Z,1.10
2023-03-20T11:05:02.460Z,1.27
2023-03-20T11:07:35.512Z,1.08
2023-03-20T11:10:13.950Z,1.20
2023-03-20T11:12:45.797Z,1.00
2023-03-20T11:15:24.321Z,1.00
2023-03-20T11:17:55.611Z,1.33
2023-03-20T11:20:25.399Z,1.48
2023-03-20T11:23:00.638Z,1.27
2023-03-20T11:25:34.823Z,1.20
2023-03-20T11:28:33.123Z,1.13
2023-03-20T11:31:05.923Z,1.30
2023-03-20T11:33:39.730Z,1.48
2023-03-20T11:36:27.645Z,1.20
2023-03-20T11:39:06.242Z,1.75
2023-03-20T11:41:34.800Z,1.20
2023-03-20T11:44:03.837Z,1.80
2023-03-20T11:46:31.791Z,1.38
2023-03-20T11:49:18.188Z,0.70
2023-03-20T11:51:45.980Z,1.33
2023-03-20T11:54:21.984Z,1.30
2023-03-20T11:56:56.161Z,1.40
2023-03-20T11:59:32.054Z,1.48
2023-03-20T12:02:00.672Z,1.45
2023-03-20T12:04:31.962Z,0.98
2023-03-20T12:07:06.652Z,1.27
2023-03-20T12:12:26.027Z,0.88
2023-03-20T12:15:06.005Z,0.82
2023-03-20T12:17:47.939Z,1.23
2023-03-20T12:20:32.744Z,0.85
2023-03-20T12:23:15.844Z,1.27
2023-03-20T12:25:56.602Z,1.17
2023-03-20T12:28:32.890Z,0.90
2023-03-20T12:31:23.224Z,1.23
2023-03-20T12:33:58.092Z,0.90
2023-03-20T12:36:34.526Z,0.98
2023-03-20T12:39:06.453Z,0.93
2023-03-20T12:41:46.625Z,1.02
2023-03-20T12:44:28.829Z,0.77
2023-03-20T12:47:18.847Z,0.80
2023-03-20T12:50:01.759Z,0.63
2023-03-20T12:52:46.377Z,0.55
2023-03-20T12:55:30.369Z,0.63
2023-03-20T12:58:22.871Z,0.60
2023-03-20T13:01:01.314Z,0.77
2023-03-20T13:03:55.955Z,0.63
2023-03-20T13:06:39.920Z,0.70
2023-03-20T13:09:50.514Z,0.80
2023-03-20T13:12:33.051Z,1.15
2023-03-20T13:15:17.517Z,0.88
2023-03-20T13:17:53.419Z,1.02
2023-03-20T13:20:27.916Z,1.00
2023-03-20T13:23:18.083Z,0.47
2023-03-20T13:26:04.363Z,0.35
2023-03-20T13:28:42.721Z,0.63
2023-03-20T13:31:29.563Z,0.93
2023-03-20T13:34:08.336Z,1.00
2023-03-20T13:37:16.145Z,0.60
2023-03-20T13:40:04.369Z,0.75
2023-03-20T13:42:39.544Z,0.43
2023-03-20T13:45:25.284Z,0.43
2023-03-20T13:47:55.367Z,0.75
2023-03-20T13:50:43.166Z,0.70
2023-03-20T13:53:28.675Z,1.33
2023-03-20T13:56:10.214Z,0.68
2023-03-20T13:59:31.572Z,0.60
2023-03-20T14:02:17.739Z,1.00
2023-03-20T14:04:46.882Z,0.70
2023-03-20T14:07:31.287Z,0.88
2023-03-20T14:10:39.653Z,0.98
2023-03-20T14:13:17.741Z,0.95
2023-03-20T14:15:55.314Z,0.60
2023-03-20T14:18:26.249Z,1.25
2023-03-20T14:20:58.640Z,0.95
2023-03-20T14:23:38.764Z,1.00
2023-03-20T14:26:11.717Z,0.93
2023-03-20T14:28:55.027Z,0.55
2023-03-20T14:31:30.959Z,0.73
2023-03-20T14:34:21.163Z,0.70
2023-03-20T14:36:59.128Z,0.70
2023-03-20T14:39:52.617Z,0.68
2023-03-20T14:42:40.934Z,0.47
2023-03-20T14:45:38.879Z,0.73
2023-03-20T14:48:24.490Z,0.63
2023-03-20T14:51:14.038Z,0.95
2023-03-20T14:53:42.396Z,1.10
2023-03-20T14:56:13.746Z,0.73
2023-03-20T14:59:03.495Z,0.70
2023-03-20T15:01:48.862Z,0.73
2023-03-20T15:04:42.561Z,0.63
2023-03-20T15:07:17.440Z,0.60
2023-03-20T15:09:48.851Z,0.73
2023-03-20T15:12:22.303Z,0.90
2023-03-20T15:14:57.443Z,1.27
2023-03-20T15:17:28.402Z,0.80
2023-03-20T15:20:07.583Z,1.20
2023-03-20T15:22:35.321Z,1.00
2023-03-20T15:25:03.006Z,0.90
2023-03-20T15:27:30.861Z,1.02
2023-03-20T15:30:03.330Z,0.98
2023-03-20T15:32:33.542Z,0.98
2023-03-20T15:35:01.438Z,1.55
2023-03-20T15:37:29.534Z,0.90
2023-03-20T15:39:59.048Z,1.17
2023-03-20T15:42:27.694Z,0.75
2023-03-20T15:44:57.381Z,1.10
2023-03-20T15:47:27.266Z,0.70
2023-03-20T15:49:58.481Z,0.70
2023-03-20T15:52:32.491Z,1.10
2023-03-20T15:55:05.431Z,1.05
2023-03-20T15:57:37.985Z,1.17
2023-03-20T16:00:11.199Z,1.38
2023-03-20T16:02:41.480Z,1.02
2023-03-20T16:05:15.041Z,0.80
2023-03-20T16:07:43.635Z,0.80
2023-03-20T16:10:18.964Z,1.38
2023-03-20T16:12:50.571Z,0.80
2023-03-20T16:15:20.606Z,0.90
2023-03-20T16:17:54.724Z,0.82
2023-03-20T16:20:24.862Z,1.15
2023-03-20T16:23:01.032Z,0.85
2023-03-20T16:25:29.297Z,0.95
2023-03-20T16:27:57.943Z,0.90
2023-03-20T16:30:31.228Z,1.10
2023-03-20T16:33:06.201Z,1.20
2023-03-20T16:35:41.287Z,0.80
2023-03-20T16:38:24.552Z,0.70
2023-03-20T16:40:58.231Z,0.55
2023-03-20T16:43:32.084Z,0.63
2023-03-20T16:46:07.319Z,0.63
2023-03-20T16:48:39.099Z,0.85
2023-03-20T16:51:18.454Z,0.82
2023-03-20T16:53:49.744Z,0.90
2023-03-20T16:56:26.205Z,0.68
2023-03-20T16:58:56.736Z,0.80
2023-03-20T17:01:28.710Z,0.57
2023-03-20T17:04:12.806Z,0.88
2023-03-20T17:06:47.950Z,0.70
2023-03-20T17:09:22.395Z,0.70
2023-03-20T17:11:56.598Z,0.40
2023-03-20T17:14:24.276Z,0.90
2023-03-20T17:16:54.828Z,0.70
2023-03-20T17:19:25.348Z,0.90
2023-03-20T17:21:53.369Z,0.57
2023-03-20T17:24:21.110Z,0.75
2023-03-20T17:26:55.726Z,0.98
2023-03-20T17:31:51.391Z,0.73
2023-03-20T17:34:19.371Z,0.95
2023-03-20T17:36:49.555Z,0.82
2023-03-20T17:39:21.048Z,0.73
2023-03-20T17:41:48.959Z,0.47
2023-03-20T17:44:16.650Z,0.70
2023-03-20T17:46:57.203Z,0.70
2023-03-20T17:49:27.028Z,0.90
2023-03-20T17:51:57.947Z,0.60
2023-03-20T17:54:26.182Z,0.88
2023-03-20T17:56:54.063Z,0.68
2023-03-20T17:59:21.836Z,0.63
2023-03-20T18:01:49.586Z,0.60
2023-03-20T18:04:17.548Z,1.02
2023-03-20T18:06:47.708Z,1.10
2023-03-20T18:09:17.219Z,0.77
2023-03-20T18:11:44.927Z,1.02
2023-03-20T18:14:17.211Z,0.75
2023-03-20T18:16:44.933Z,0.88
2023-03-20T18:19:24.240Z,0.88
2023-03-20T18:21:52.064Z,0.63
2023-03-20T18:24:21.242Z,0.60
2023-03-20T18:26:49.256Z,0.73
2023-03-20T18:29:17.923Z,0.88
2023-03-20T18:31:45.773Z,0.75
2023-03-20T18:34:13.822Z,0.82
2023-03-20T18:36:42.114Z,1.00
2023-03-20T18:39:13.258Z,0.90
2023-03-20T18:41:42.574Z,0.82
2023-03-20T18:44:10.323Z,0.93
2023-03-20T18:46:38.096Z,0.68
2023-03-20T18:49:07.063Z,0.93
2023-03-20T18:51:34.912Z,0.85
2023-03-20T18:54:02.682Z,0.77
2023-03-20T18:56:32.025Z,0.80
2023-03-20T18:59:01.118Z,1.20
2023-03-20T19:01:29.070Z,0.90
2023-03-20T19:03:56.773Z,0.98
2023-03-20T19:06:24.658Z,0.80
2023-03-20T19:08:53.466Z,1.05
2023-03-20T19:11:21.823Z,0.90
2023-03-20T19:13:52.087Z,0.82
2023-03-20T19:16:25.113Z,1.10
2023-03-20T19:18:54.385Z,0.60
2023-03-20T19:21:25.875Z,1.33
2023-03-20T19:23:54.553Z,0.93
2023-03-20T19:26:25.721Z,1.35
2023-03-20T19:28:54.866Z,0.93
2023-03-20T19:31:24.571Z,2.13
2023-03-20T19:33:53.628Z,1.05
2023-03-20T19:36:29.193Z,0.98
2023-03-20T19:38:59.127Z,0.90
2023-03-20T19:41:28.665Z,0.80
2023-03-20T19:43:57.660Z,0.98
2023-03-20T19:46:44.039Z,1.20
2023-03-20T19:49:20.867Z,0.68
2023-03-20T19:51:50.098Z,1.45
2023-03-20T19:54:18.459Z,1.38
2023-03-20T19:56:46.198Z,1.30
2023-03-20T19:59:16.213Z,1.15
2023-03-20T20:01:46.637Z,1.17
2023-03-20T20:04:15.314Z,0.98
2023-03-20T20:06:43.051Z,1.15
2023-03-20T20:09:10.787Z,0.82
2023-03-20T20:11:38.595Z,0.98
2023-03-20T20:14:09.627Z,1.10
2023-03-20T20:16:42.244Z,0.93
2023-03-20T20:19:11.775Z,1.27
2023-03-20T20:24:28.214Z,0.93
2023-03-20T20:27:15.240Z,0.90
2023-03-20T20:29:46.859Z,1.13
2023-03-20T20:32:14.707Z,1.15
2023-03-20T20:40:21.915Z,0.93
2023-03-20T20:42:51.724Z,1.10
2023-03-20T20:45:22.184Z,1.38
2023-03-20T20:47:50.957Z,1.05
2023-03-20T20:50:23.005Z,1.17
2023-03-20T20:52:52.122Z,1.50
2023-03-20T20:55:24.029Z,1.83
2023-03-20T20:57:53.301Z,1.50
2023-03-20T21:00:37.110Z,0.95
2023-03-20T21:03:09.249Z,1.27
2023-03-20T21:05:42.738Z,0.85
2023-03-20T21:08:13.831Z,1.13
2023-03-20T21:10:41.601Z,1.42
2023-03-20T21:13:09.419Z,0.98
2023-03-20T21:15:37.635Z,1.13
2023-03-20T21:18:05.729Z,1.25
2023-03-20T21:20:34.591Z,1.27
2023-03-20T21:23:03.725Z,1.48
2023-03-20T21:25:40.060Z,1.40
2023-03-20T21:28:10.002Z,1.13
2023-03-20T21:30:50.012Z,1.38
2023-03-20T21:33:29.668Z,1.00
2023-03-20T21:35:57.687Z,1.02
2023-03-20T21:39:02.087Z,1.20
2023-03-20T21:41:15.331Z,0.73
2023-03-20T21:43:46.412Z,0.82
2023-03-20T21:52:49.905Z,0.80
2023-03-20T22:03:10.905Z,1.27
2023-03-20T22:06:23.807Z,1.13
2023-03-20T22:12:01.635Z,2.17
2023-03-20T22:14:58.414Z,1.42
2023-03-20T22:17:51.048Z,1.63
2023-03-20T22:29:09.733Z,1.60
2023-03-20T22:31:40.935Z,1.67
2023-03-20T22:42:47.776Z,2.00
2023-03-20T22:45:03.515Z,2.10
2023-03-20T22:47:32.298Z,1.60
2023-03-20T22:50:00.165Z,2.53
2023-03-20T22:52:41.659Z,1.90
2023-03-20T22:55:13.748Z,2.15
2023-03-20T22:57:52.568Z,1.85
2023-03-20T23:00:28.948Z,1.88
2023-03-20T23:03:06.811Z,2.03
2023-03-20T23:05:42.349Z,1.77
2023-03-20T23:08:12.179Z,1.83
2023-03-20T23:10:44.591Z,2.08
2023-03-20T23:13:12.813Z,1.70
2023-03-20T23:15:42.395Z,1.80
2023-03-20T23:18:11.556Z,1.80
2023-03-20T23:20:39.485Z,1.60
2023-03-20T23:23:07.460Z,1.95
2023-03-20T23:25:39.767Z,1.80
2023-03-20T23:28:09.884Z,1.75
2023-03-20T23:30:45.337Z,1.63
2023-03-20T23:33:17.421Z,1.80
2023-03-20T23:35:45.189Z,1.63
2023-03-20T23:38:13.361Z,1.88
2023-03-20T23:40:41.339Z,1.67
2023-03-20T23:43:09.088Z,1.60
2023-03-20T23:45:37.072Z,2.17
2023-03-20T23:48:06.435Z,1.67
2023-03-20T23:53:23.982Z,1.98
2023-03-20T23:55:55.214Z,1.83
2023-03-20T23:58:24.831Z,1.83
